Aérodrome :
LOGIN :

S'inscrire | Disclaimer

   EN    FR    IT 

 










Légende :    VFR   VFR Marginal   IFR   IFR Intensif   IFR Très Intensif
Visi : 
Plafond : 
>= 8 km
>= 3000ft
5 à 8 km
1000 à 3000 ft
1500m à 5 km
500 à 1000 ft
800 à 1500m
200 à 500 ft
< 800m
< 200 ft
Symboles :   Orages  Brouillard  Fortes neiges  Fortes précipitations  Vent > 20 kt
SIGMETs :   Divers  Orages  Givrage  Turbulence  Onde Orograph.  Cendres Volcan.







- Altitude de l'aérodrome : 616 ft
- Code IATA : PUF
- Voir les cartes d'approche


LFBP - Pau

DERNIER METAR :
  • 251100Z AUTO 27006KT 9999 OVC039 19/15 Q1022 TEMPO 4000 SHRA BKN015TCU

METARs EXPIRÉS :
  • 251030Z AUTO 24003KT 210V270 9999 FEW026 OVC033 18/14 Q1022 TEMPO 4000 SHRA BKN015TCU
  • 251000Z AUTO 28006KT 9999 OVC026 18/14 Q1022 TEMPO 4000 SHRA BKN015TCU
  • 250930Z AUTO 29005KT 250V310 9999 FEW026 SCT056 OVC068 18/14 Q1022 TEMPO 4000 SHRA BKN015TCU
  • 250900Z AUTO 26003KT 190V300 9999 OVC064 18/14 Q1022 TEMPO 4000 SHRA BKN015TCU
  • 250830Z AUTO 19003KT 160V220 9999 OVC060 17/13 Q1021 TEMPO 4000 SHRA BKN015TCU

TAF TAF LFBP
Valide du 25 à 12h jusqu'au 26 à 12h UTC


251100Z 2512/2612 27010KT 9999 SCT020 BKN030
TEMPO 2512/2514 4000 SHRA BKN015TCU
PROB30
TEMPO 2518/2524 4000 SHRA BKN015TCU
BECMG 2520/2522 VRB02KT
Pas de NOTAMs connus pour ce terrain.
2 SIGMETs publiés pour la FIR Bordeaux (LFBB) :
 
Orages noyés dans la masse
LFBB SIGMET 7 VALID 251130/251300 LFPW
LFBB BORDEAUX FIR/UIR EMBD TS OBS WI N4245 E00230 - N4215 E00230 - N4230 E00130 - N4300 E00145 TOP FL340 MOV E 15KT NC=
Orages noyés dans la masse
LFBB SIGMET 6 VALID 251030/251130 LFPW
LFBB BORDEAUX FIR/UIR EMBD TS OBS WI N4230 E00130 - N4230 E00045 - N4345 E00145 - N4330 E00230 TOP FL340 MOV NE 20KT NC=



MET'MAP, la Météo Aéronautique d'un coup d'oeil ! - Copyright ORBIFLY Décembre 2007 - Disclaimer

ORBIFLY MET'MAP TEAM :

Programmation & Développement : Alexandra Zaïnal
Conception & Développement : Baudouin d'Aumeries
Co-Programmation & Développement : Marc-Olivier Méhu
Soutien technique & logistique : Manuel Goepfert

Contact : metmap@orbifly.com




SOURCES & CREDITS :

   NOAA